Skip Navigation LinksHome page > Weather > Current weather Skip Navigation Links

Current Weather

Honolulu Intl, Honolulu

For information only: do not use for flight planning or navigation.
Latest weather
Observation time Friday, August 22, 2014 8:53 PM HST
Local time Friday, August 22, 2014 9:29 PM HST
Flight conditions Visual Meteorological Conditions
Winds
Wind direction Northeast (50°)
Wind speed 14 mph
Visibility 10 mi.
Sky condition
Ceiling unlimited
Cloud layer few clouds 2,400 ft.
Cloud layer scattered clouds 4,400 ft.
Cloud layer scattered clouds 5,000 ft.
Temperature 80°F
Dewpoint 65°F
Altimeter 30.00 in.Hg
Derived measurements
Relative humidity 60%
Heat index 82°F
Density altitude 1561 ft.
Sea-level pressure 30.00 in.Hg
Remarks
Automated weather observing station with precipitation discriminator.
METAR PHNL 230653Z 05012KT 10SM FEW024 SCT044 SCT050 27/18 A3000 RMK AO2 SLP158 T02670183

Settings

Location code

InnerDrive.Weather 4.0.5341.0 Release CLR 4.0.30319.34014
Copyright ©2014 Inner Drive Technology. All rights reserved. Portions Copyright ©1986-2014 David Braverman.

Find weather

Site navigation


Skip Navigation Links

Place info

Page info

PayPal - The safer, easier way to pay online!

Return home.

Copyright ©2014 Inner Drive Technology. Purveyors of fine, hand-crafted computer software. Page printed 2014-08-23T07:29:23 UTC.